sensor_id;sensor_type;location;lat;lon;timestamp;pressure;altitude;pressure_sealevel;temperature;humidity
37824;BME280;23667;43.246;26.576;2022-09-09T12:33:12;99284.19;;;29.61;56.47
37824;BME280;23667;43.246;26.576;2022-09-09T12:35:38;99288.38;;;29.72;57.62
37824;BME280;23667;43.246;26.576;2022-09-09T12:38:12;99287.63;;;29.94;56.21
37824;BME280;23667;43.246;26.576;2022-09-09T12:40:39;99275.97;;;30.02;55.44
37824;BME280;23667;43.246;26.576;2022-09-09T12:43:19;99271.91;;;29.75;54.81
37824;BME280;23667;43.246;26.576;2022-09-09T12:45:46;99270.59;;;29.70;56.52
37824;BME280;23667;43.246;26.576;2022-09-09T12:48:18;99262.50;;;29.79;55.26
37824;BME280;23667;43.246;26.576;2022-09-09T12:50:48;99261.56;;;29.95;55.99
37824;BME280;23667;43.246;26.576;2022-09-09T12:53:25;99260.63;;;30.10;54.83
37824;BME280;23667;43.246;26.576;2022-09-09T12:55:56;99258.88;;;30.26;55.33
37824;BME280;23667;43.246;26.576;2022-09-09T12:58:22;99264.53;;;30.39;54.21
37824;BME280;23667;43.246;26.576;2022-09-09T13:00:50;99247.31;;;30.48;53.78
37824;BME280;23667;43.246;26.576;2022-09-09T13:03:18;99254.97;;;30.59;53.80
37824;BME280;23667;43.246;26.576;2022-09-09T13:05:46;99243.63;;;30.64;53.59
37824;BME280;23667;43.246;26.576;2022-09-09T13:08:13;99252.53;;;30.19;53.88
37824;BME280;23667;43.246;26.576;2022-09-09T13:13:20;99244.50;;;30.10;53.83
37824;BME280;23667;43.246;26.576;2022-09-09T13:15:55;99244.25;;;29.97;54.37
37824;BME280;23667;43.246;26.576;2022-09-09T13:18:29;99246.16;;;29.88;55.52
37824;BME280;23667;43.246;26.576;2022-09-09T13:20:56;99238.09;;;29.88;55.12
37824;BME280;23667;43.246;26.576;2022-09-09T13:23:26;99242.91;;;29.93;54.18
37824;BME280;23667;43.246;26.576;2022-09-09T13:26:00;99237.53;;;29.93;55.25
37824;BME280;23667;43.246;26.576;2022-09-09T13:28:30;99233.97;;;30.01;54.73
37824;BME280;23667;43.246;26.576;2022-09-09T13:31:00;99242.41;;;29.98;54.64
37824;BME280;23667;43.246;26.576;2022-09-09T13:33:44;99222.19;;;29.79;54.86
37824;BME280;23667;43.246;26.576;2022-09-09T13:36:11;99234.06;;;29.84;54.99
37824;BME280;23667;43.246;26.576;2022-09-09T13:38:56;99235.44;;;29.80;54.86
37824;BME280;23667;43.246;26.576;2022-09-09T13:41:24;99236.22;;;29.89;55.49
37824;BME280;23667;43.246;26.576;2022-09-09T13:43:51;99224.78;;;29.95;54.27
37824;BME280;23667;43.246;26.576;2022-09-09T13:46:36;99228.13;;;29.97;54.77
37824;BME280;23667;43.246;26.576;2022-09-09T13:49:22;99228.75;;;29.99;54.15
37824;BME280;23667;43.246;26.576;2022-09-09T13:51:51;99229.72;;;29.83;54.43
37824;BME280;23667;43.246;26.576;2022-09-09T13:54:20;99223.56;;;29.66;54.16
37824;BME280;23667;43.246;26.576;2022-09-09T13:56:46;99224.56;;;29.74;53.90
37824;BME280;23667;43.246;26.576;2022-09-09T13:59:14;99229.53;;;29.85;54.17
37824;BME280;23667;43.246;26.576;2022-09-09T14:01:41;99219.94;;;29.90;55.01
37824;BME280;23667;43.246;26.576;2022-09-09T14:04:07;99215.44;;;29.83;54.28
37824;BME280;23667;43.246;26.576;2022-09-09T14:06:34;99217.19;;;29.59;54.59
37824;BME280;23667;43.246;26.576;2022-09-09T14:09:02;99219.22;;;29.57;54.75
37824;BME280;23667;43.246;26.576;2022-09-09T14:11:28;99218.00;;;29.29;55.05
37824;BME280;23667;43.246;26.576;2022-09-09T14:13:53;99211.69;;;29.05;55.24
37824;BME280;23667;43.246;26.576;2022-09-09T14:16:19;99214.88;;;28.76;55.98
37824;BME280;23667;43.246;26.576;2022-09-09T14:18:47;99210.53;;;28.58;55.92
37824;BME280;23667;43.246;26.576;2022-09-09T14:21:12;99215.56;;;28.53;56.04
37824;BME280;23667;43.246;26.576;2022-09-09T14:23:39;99208.53;;;28.52;56.45
37824;BME280;23667;43.246;26.576;2022-09-09T14:26:06;99205.31;;;28.57;56.78
37824;BME280;23667;43.246;26.576;2022-09-09T14:28:32;99200.09;;;28.80;56.55
37824;BME280;23667;43.246;26.576;2022-09-09T14:31:02;99202.44;;;28.91;56.09
37824;BME280;23667;43.246;26.576;2022-09-09T14:33:29;99201.22;;;29.18;55.70
37824;BME280;23667;43.246;26.576;2022-09-09T14:35:59;99197.22;;;29.22;55.37
37824;BME280;23667;43.246;26.576;2022-09-09T14:38:29;99202.91;;;29.19;55.45
37824;BME280;23667;43.246;26.576;2022-09-09T14:40:55;99195.34;;;29.23;54.93
37824;BME280;23667;43.246;26.576;2022-09-09T14:43:21;99187.66;;;29.12;55.63
37824;BME280;23667;43.246;26.576;2022-09-09T14:45:47;99188.97;;;29.16;55.02
37824;BME280;23667;43.246;26.576;2022-09-09T14:48:16;99189.19;;;29.06;54.91
37824;BME280;23667;43.246;26.576;2022-09-09T14:50:42;99191.38;;;29.02;55.89
37824;BME280;23667;43.246;26.576;2022-09-09T14:53:08;99192.56;;;29.08;55.44
37824;BME280;23667;43.246;26.576;2022-09-09T14:55:34;99197.38;;;29.13;55.17
37824;BME280;23667;43.246;26.576;2022-09-09T14:58:00;99190.84;;;29.07;55.61
37824;BME280;23667;43.246;26.576;2022-09-09T15:00:26;99182.97;;;28.89;56.05
37824;BME280;23667;43.246;26.576;2022-09-09T15:02:53;99181.84;;;28.75;55.54
37824;BME280;23667;43.246;26.576;2022-09-09T15:05:18;99189.22;;;28.65;55.46
37824;BME280;23667;43.246;26.576;2022-09-09T15:07:44;99181.50;;;28.54;56.15
37824;BME280;23667;43.246;26.576;2022-09-09T15:10:14;99188.56;;;28.47;56.76
37824;BME280;23667;43.246;26.576;2022-09-09T15:12:39;99185.00;;;28.30;57.31
37824;BME280;23667;43.246;26.576;2022-09-09T15:15:07;99182.81;;;28.09;57.30
37824;BME280;23667;43.246;26.576;2022-09-09T15:17:33;99181.00;;;28.01;57.95
37824;BME280;23667;43.246;26.576;2022-09-09T15:19:58;99184.16;;;27.97;58.28
37824;BME280;23667;43.246;26.576;2022-09-09T15:22:24;99185.63;;;27.91;57.85
37824;BME280;23667;43.246;26.576;2022-09-09T15:24:50;99186.13;;;27.78;57.61
37824;BME280;23667;43.246;26.576;2022-09-09T15:27:15;99186.06;;;27.70;58.21
37824;BME280;23667;43.246;26.576;2022-09-09T15:29:41;99182.69;;;27.68;58.22
37824;BME280;23667;43.246;26.576;2022-09-09T15:32:08;99180.69;;;27.62;58.64
37824;BME280;23667;43.246;26.576;2022-09-09T15:34:33;99189.03;;;27.59;59.14
37824;BME280;23667;43.246;26.576;2022-09-09T15:36:59;99196.38;;;27.49;59.49
37824;BME280;23667;43.246;26.576;2022-09-09T15:39:25;99191.53;;;27.52;60.39
37824;BME280;23667;43.246;26.576;2022-09-09T15:41:51;99189.00;;;27.51;59.97
37824;BME280;23667;43.246;26.576;2022-09-09T15:44:16;99185.16;;;27.53;60.40
37824;BME280;23667;43.246;26.576;2022-09-09T15:46:49;99181.66;;;27.53;60.66
37824;BME280;23667;43.246;26.576;2022-09-09T15:49:21;99187.66;;;27.47;60.45
37824;BME280;23667;43.246;26.576;2022-09-09T15:51:55;99195.00;;;27.44;60.47
37824;BME280;23667;43.246;26.576;2022-09-09T15:54:23;99199.97;;;27.31;61.29
37824;BME280;23667;43.246;26.576;2022-09-09T15:56:55;99201.66;;;27.32;61.69
37824;BME280;23667;43.246;26.576;2022-09-09T15:59:24;99207.84;;;27.33;61.19
37824;BME280;23667;43.246;26.576;2022-09-09T16:01:50;99211.97;;;27.19;60.52
37824;BME280;23667;43.246;26.576;2022-09-09T16:04:20;99213.50;;;27.21;61.91
37824;BME280;23667;43.246;26.576;2022-09-09T16:09:17;99205.19;;;27.07;61.28
37824;BME280;23667;43.246;26.576;2022-09-09T16:11:43;99205.69;;;27.10;62.11
37824;BME280;23667;43.246;26.576;2022-09-09T16:14:08;99201.88;;;27.13;62.44
37824;BME280;23667;43.246;26.576;2022-09-09T16:16:34;99212.91;;;27.10;62.19
37824;BME280;23667;43.246;26.576;2022-09-09T16:19:04;99205.53;;;27.12;62.70
37824;BME280;23667;43.246;26.576;2022-09-09T16:21:34;99205.66;;;27.02;62.78
37824;BME280;23667;43.246;26.576;2022-09-09T16:24:01;99213.16;;;26.98;64.39
37824;BME280;23667;43.246;26.576;2022-09-09T16:26:29;99212.78;;;26.93;63.92
37824;BME280;23667;43.246;26.576;2022-09-09T16:28:56;99215.59;;;26.66;64.92
37824;BME280;23667;43.246;26.576;2022-09-09T16:31:23;99219.94;;;26.67;65.31
37824;BME280;23667;43.246;26.576;2022-09-09T16:33:50;99218.19;;;26.75;74.49
37824;BME280;23667;43.246;26.576;2022-09-09T16:36:21;99214.06;;;26.63;68.79
37824;BME280;23667;43.246;26.576;2022-09-09T16:38:47;99218.06;;;26.59;75.65
37824;BME280;23667;43.246;26.576;2022-09-09T16:41:14;99226.16;;;26.49;69.18
37824;BME280;23667;43.246;26.576;2022-09-09T16:43:40;99225.28;;;26.49;68.56
37824;BME280;23667;43.246;26.576;2022-09-09T16:46:17;99233.94;;;26.43;69.46
37824;BME280;23667;43.246;26.576;2022-09-09T16:48:44;99228.72;;;26.41;69.08
37824;BME280;23667;43.246;26.576;2022-09-09T16:51:17;99232.09;;;26.43;69.82
37824;BME280;23667;43.246;26.576;2022-09-09T16:53:43;99242.25;;;26.40;70.85
37824;BME280;23667;43.246;26.576;2022-09-09T16:56:12;99246.16;;;26.27;70.24
37824;BME280;23667;43.246;26.576;2022-09-09T16:58:38;99243.78;;;26.24;70.67
37824;BME280;23667;43.246;26.576;2022-09-09T17:01:04;99249.88;;;26.35;70.42
37824;BME280;23667;43.246;26.576;2022-09-09T17:03:30;99242.47;;;26.46;71.41
37824;BME280;23667;43.246;26.576;2022-09-09T17:05:57;99244.84;;;26.31;71.17
37824;BME280;23667;43.246;26.576;2022-09-09T17:08:23;99242.97;;;26.24;72.54
37824;BME280;23667;43.246;26.576;2022-09-09T17:10:49;99244.53;;;26.17;73.77
37824;BME280;23667;43.246;26.576;2022-09-09T17:13:15;99245.84;;;26.13;75.37
37824;BME280;23667;43.246;26.576;2022-09-09T17:15:45;99246.44;;;26.06;78.58
37824;BME280;23667;43.246;26.576;2022-09-09T17:18:12;99255.06;;;26.00;80.78
37824;BME280;23667;43.246;26.576;2022-09-09T17:20:39;99244.81;;;25.96;83.67
37824;BME280;23667;43.246;26.576;2022-09-09T17:23:06;99251.78;;;26.06;86.54
37824;BME280;23667;43.246;26.576;2022-09-09T17:25:31;99253.97;;;25.93;90.53
37824;BME280;23667;43.246;26.576;2022-09-09T17:27:58;99254.44;;;25.89;91.87
37824;BME280;23667;43.246;26.576;2022-09-09T17:30:24;99264.53;;;25.95;93.90
37824;BME280;23667;43.246;26.576;2022-09-09T17:32:49;99265.81;;;25.81;96.09
37824;BME280;23667;43.246;26.576;2022-09-09T17:35:15;99260.00;;;25.68;98.48
37824;BME280;23667;43.246;26.576;2022-09-09T17:37:40;99268.56;;;25.61;100.00
37824;BME280;23667;43.246;26.576;2022-09-09T17:40:07;99277.34;;;25.54;100.00
37824;BME280;23667;43.246;26.576;2022-09-09T17:42:33;99275.25;;;25.48;100.00
37824;BME280;23667;43.246;26.576;2022-09-09T17:44:59;99278.56;;;25.12;100.00
37824;BME280;23667;43.246;26.576;2022-09-09T17:47:25;99275.81;;;24.85;100.00
37824;BME280;23667;43.246;26.576;2022-09-09T17:49:51;99282.56;;;24.60;100.00
37824;BME280;23667;43.246;26.576;2022-09-09T17:52:16;99290.78;;;24.37;100.00
37824;BME280;23667;43.246;26.576;2022-09-09T17:54:42;99290.94;;;24.26;100.00
37824;BME280;23667;43.246;26.576;2022-09-09T17:57:07;99287.38;;;24.16;100.00
37824;BME280;23667;43.246;26.576;2022-09-09T17:59:33;99290.03;;;24.06;100.00
37824;BME280;23667;43.246;26.576;2022-09-09T18:01:59;99291.56;;;23.99;100.00
37824;BME280;23667;43.246;26.576;2022-09-09T18:04:24;99296.03;;;23.98;100.00
37824;BME280;23667;43.246;26.576;2022-09-09T18:06:51;99301.50;;;23.97;100.00
37824;BME280;23667;43.246;26.576;2022-09-09T18:09:23;99298.41;;;23.92;100.00
37824;BME280;23667;43.246;26.576;2022-09-09T18:11:54;99309.47;;;23.87;100.00
37824;BME280;23667;43.246;26.576;2022-09-09T18:14:23;99309.31;;;23.79;100.00
37824;BME280;23667;43.246;26.576;2022-09-09T18:16:49;99310.41;;;23.76;100.00
37824;BME280;23667;43.246;26.576;2022-09-09T18:19:18;99318.88;;;23.60;100.00
37824;BME280;23667;43.246;26.576;2022-09-09T18:21:44;99314.47;;;23.50;100.00
37824;BME280;23667;43.246;26.576;2022-09-09T18:24:11;99318.66;;;23.43;100.00
37824;BME280;23667;43.246;26.576;2022-09-09T18:26:38;99323.38;;;23.39;100.00
37824;BME280;23667;43.246;26.576;2022-09-09T18:29:07;99322.44;;;23.19;100.00
37824;BME280;23667;43.246;26.576;2022-09-09T18:31:34;99325.84;;;23.10;100.00
37824;BME280;23667;43.246;26.576;2022-09-09T18:34:01;99323.13;;;23.00;100.00
37824;BME280;23667;43.246;26.576;2022-09-09T18:36:33;99323.06;;;22.79;100.00
37824;BME280;23667;43.246;26.576;2022-09-09T18:39:00;99334.94;;;22.75;100.00
37824;BME280;23667;43.246;26.576;2022-09-09T18:41:30;99333.75;;;22.68;100.00
37824;BME280;23667;43.246;26.576;2022-09-09T18:43:58;99333.94;;;22.55;100.00
37824;BME280;23667;43.246;26.576;2022-09-09T18:46:25;99340.31;;;22.53;100.00
37824;BME280;23667;43.246;26.576;2022-09-09T18:48:51;99347.25;;;22.44;100.00
37824;BME280;23667;43.246;26.576;2022-09-09T18:51:19;99347.38;;;22.42;100.00
37824;BME280;23667;43.246;26.576;2022-09-09T18:53:53;99353.63;;;22.41;100.00
37824;BME280;23667;43.246;26.576;2022-09-09T18:56:20;99353.19;;;22.36;100.00
37824;BME280;23667;43.246;26.576;2022-09-09T18:58:46;99347.31;;;22.21;100.00
37824;BME280;23667;43.246;26.576;2022-09-09T19:01:14;99355.09;;;22.12;100.00
37824;BME280;23667;43.246;26.576;2022-09-09T19:03:40;99354.53;;;22.19;100.00
37824;BME280;23667;43.246;26.576;2022-09-09T19:06:15;99352.00;;;22.18;100.00
37824;BME280;23667;43.246;26.576;2022-09-09T19:08:43;99347.16;;;22.23;100.00
37824;BME280;23667;43.246;26.576;2022-09-09T19:11:13;99357.28;;;22.29;100.00
37824;BME280;23667;43.246;26.576;2022-09-09T19:13:41;99347.66;;;22.28;100.00
37824;BME280;23667;43.246;26.576;2022-09-09T19:16:10;99345.25;;;22.25;100.00
37824;BME280;23667;43.246;26.576;2022-09-09T19:18:35;99349.22;;;22.19;100.00
37824;BME280;23667;43.246;26.576;2022-09-09T19:23:40;99350.31;;;22.17;100.00
37824;BME280;23667;43.246;26.576;2022-09-09T19:26:06;99337.50;;;22.11;100.00
37824;BME280;23667;43.246;26.576;2022-09-09T19:28:34;99341.59;;;22.03;100.00
37824;BME280;23667;43.246;26.576;2022-09-09T19:31:05;99344.50;;;22.00;100.00
37824;BME280;23667;43.246;26.576;2022-09-09T19:33:32;99343.53;;;22.01;100.00
37824;BME280;23667;43.246;26.576;2022-09-09T19:35:59;99340.66;;;22.04;100.00
37824;BME280;23667;43.246;26.576;2022-09-09T19:38:30;99348.13;;;21.99;100.00
37824;BME280;23667;43.246;26.576;2022-09-09T19:41:02;99329.94;;;21.95;100.00
37824;BME280;23667;43.246;26.576;2022-09-09T19:43:29;99343.31;;;21.93;100.00
37824;BME280;23667;43.246;26.576;2022-09-09T19:45:59;99339.22;;;21.89;100.00
37824;BME280;23667;43.246;26.576;2022-09-09T19:48:28;99341.72;;;21.91;100.00
37824;BME280;23667;43.246;26.576;2022-09-09T19:51:00;99342.31;;;22.06;100.00
37824;BME280;23667;43.246;26.576;2022-09-09T19:53:26;99340.75;;;22.03;100.00
37824;BME280;23667;43.246;26.576;2022-09-09T19:55:52;99344.38;;;22.13;100.00
37824;BME280;23667;43.246;26.576;2022-09-09T19:58:17;99342.91;;;22.09;100.00
37824;BME280;23667;43.246;26.576;2022-09-09T20:00:44;99346.06;;;22.03;100.00
37824;BME280;23667;43.246;26.576;2022-09-09T20:03:09;99344.28;;;21.92;100.00
37824;BME280;23667;43.246;26.576;2022-09-09T20:05:35;99338.97;;;21.92;100.00
37824;BME280;23667;43.246;26.576;2022-09-09T20:08:00;99340.16;;;21.88;100.00
37824;BME280;23667;43.246;26.576;2022-09-09T20:10:26;99326.91;;;21.77;100.00
37824;BME280;23667;43.246;26.576;2022-09-09T20:12:51;99332.69;;;21.82;100.00
37824;BME280;23667;43.246;26.576;2022-09-09T20:15:17;99327.13;;;21.85;100.00
37824;BME280;23667;43.246;26.576;2022-09-09T20:17:42;99330.28;;;21.90;100.00
37824;BME280;23667;43.246;26.576;2022-09-09T20:20:08;99323.28;;;21.89;100.00
37824;BME280;23667;43.246;26.576;2022-09-09T20:22:33;99325.31;;;21.86;100.00
37824;BME280;23667;43.246;26.576;2022-09-09T20:24:59;99317.38;;;21.74;100.00
37824;BME280;23667;43.246;26.576;2022-09-09T20:27:28;99323.78;;;21.61;100.00
37824;BME280;23667;43.246;26.576;2022-09-09T20:29:57;99320.75;;;21.54;100.00
37824;BME280;23667;43.246;26.576;2022-09-09T20:32:23;99313.63;;;21.43;100.00
37824;BME280;23667;43.246;26.576;2022-09-09T20:34:49;99321.28;;;21.24;100.00
37824;BME280;23667;43.246;26.576;2022-09-09T20:37:14;99325.84;;;21.10;100.00
37824;BME280;23667;43.246;26.576;2022-09-09T20:39:41;99327.03;;;21.06;100.00
37824;BME280;23667;43.246;26.576;2022-09-09T20:42:06;99331.28;;;21.09;100.00
37824;BME280;23667;43.246;26.576;2022-09-09T20:44:32;99332.25;;;20.84;100.00
37824;BME280;23667;43.246;26.576;2022-09-09T20:46:57;99330.94;;;20.89;100.00
37824;BME280;23667;43.246;26.576;2022-09-09T20:49:31;99330.13;;;20.89;100.00
37824;BME280;23667;43.246;26.576;2022-09-09T20:51:59;99329.72;;;20.82;100.00
37824;BME280;23667;43.246;26.576;2022-09-09T20:54:27;99327.66;;;20.75;100.00
37824;BME280;23667;43.246;26.576;2022-09-09T20:56:54;99326.81;;;20.74;100.00
37824;BME280;23667;43.246;26.576;2022-09-09T20:59:23;99332.22;;;20.73;100.00
37824;BME280;23667;43.246;26.576;2022-09-09T21:01:49;99326.94;;;20.84;100.00
37824;BME280;23667;43.246;26.576;2022-09-09T21:04:16;99329.38;;;20.87;100.00
37824;BME280;23667;43.246;26.576;2022-09-09T21:06:43;99336.13;;;20.91;100.00
37824;BME280;23667;43.246;26.576;2022-09-09T21:09:09;99337.47;;;20.85;100.00
37824;BME280;23667;43.246;26.576;2022-09-09T21:11:34;99339.47;;;20.82;100.00
37824;BME280;23667;43.246;26.576;2022-09-09T21:14:01;99334.41;;;20.79;100.00
37824;BME280;23667;43.246;26.576;2022-09-09T21:16:27;99331.28;;;20.74;100.00
37824;BME280;23667;43.246;26.576;2022-09-09T21:18:53;99339.59;;;20.80;100.00
37824;BME280;23667;43.246;26.576;2022-09-09T21:21:19;99335.59;;;20.75;100.00
37824;BME280;23667;43.246;26.576;2022-09-09T21:23:48;99340.44;;;20.81;100.00
37824;BME280;23667;43.246;26.576;2022-09-09T21:26:14;99344.75;;;20.71;100.00
37824;BME280;23667;43.246;26.576;2022-09-09T21:28:39;99340.91;;;20.75;100.00
37824;BME280;23667;43.246;26.576;2022-09-09T21:31:05;99344.69;;;20.59;100.00
37824;BME280;23667;43.246;26.576;2022-09-09T21:33:32;99355.38;;;20.58;100.00
37824;BME280;23667;43.246;26.576;2022-09-09T21:36:05;99350.81;;;20.60;100.00
37824;BME280;23667;43.246;26.576;2022-09-09T21:38:31;99349.16;;;20.59;100.00
37824;BME280;23667;43.246;26.576;2022-09-09T21:41:04;99348.50;;;20.55;100.00
37824;BME280;23667;43.246;26.576;2022-09-09T21:43:30;99340.13;;;20.49;100.00
37824;BME280;23667;43.246;26.576;2022-09-09T21:45:56;99339.00;;;20.40;100.00
37824;BME280;23667;43.246;26.576;2022-09-09T21:48:22;99337.78;;;20.33;100.00
37824;BME280;23667;43.246;26.576;2022-09-09T21:50:50;99333.16;;;20.23;100.00
37824;BME280;23667;43.246;26.576;2022-09-09T21:53:17;99342.47;;;20.16;100.00
37824;BME280;23667;43.246;26.576;2022-09-09T21:55:45;99348.31;;;20.09;100.00
37824;BME280;23667;43.246;26.576;2022-09-09T21:58:15;99348.19;;;20.10;100.00
37824;BME280;23667;43.246;26.576;2022-09-09T22:00:44;99344.31;;;20.03;100.00
37824;BME280;23667;43.246;26.576;2022-09-09T22:03:14;99351.41;;;19.90;100.00
37824;BME280;23667;43.246;26.576;2022-09-09T22:05:41;99343.25;;;19.93;100.00
37824;BME280;23667;43.246;26.576;2022-09-09T22:08:09;99343.25;;;19.93;100.00
37824;BME280;23667;43.246;26.576;2022-09-09T22:10:37;99342.09;;;19.84;100.00
37824;BME280;23667;43.246;26.576;2022-09-09T22:13:03;99342.00;;;19.86;100.00
37824;BME280;23667;43.246;26.576;2022-09-09T22:15:28;99345.72;;;19.83;100.00
37824;BME280;23667;43.246;26.576;2022-09-09T22:17:55;99345.53;;;19.73;100.00
37824;BME280;23667;43.246;26.576;2022-09-09T22:20:20;99345.84;;;19.69;100.00
37824;BME280;23667;43.246;26.576;2022-09-09T22:22:46;99338.13;;;19.66;100.00
37824;BME280;23667;43.246;26.576;2022-09-09T22:25:11;99344.03;;;19.57;100.00
37824;BME280;23667;43.246;26.576;2022-09-09T22:27:37;99344.84;;;19.57;100.00
37824;BME280;23667;43.246;26.576;2022-09-09T22:30:02;99345.50;;;19.48;100.00
37824;BME280;23667;43.246;26.576;2022-09-09T22:32:28;99346.69;;;19.44;100.00
37824;BME280;23667;43.246;26.576;2022-09-09T22:34:54;99346.13;;;19.39;100.00
37824;BME280;23667;43.246;26.576;2022-09-09T22:37:19;99351.84;;;19.32;100.00
37824;BME280;23667;43.246;26.576;2022-09-09T22:39:46;99347.19;;;19.36;100.00
37824;BME280;23667;43.246;26.576;2022-09-09T22:42:13;99342.94;;;19.33;100.00
37824;BME280;23667;43.246;26.576;2022-09-09T22:44:39;99350.47;;;19.14;100.00
37824;BME280;23667;43.246;26.576;2022-09-09T22:47:05;99352.34;;;19.25;100.00
37824;BME280;23667;43.246;26.576;2022-09-09T22:49:31;99347.31;;;19.35;100.00
37824;BME280;23667;43.246;26.576;2022-09-09T22:51:56;99340.53;;;19.30;100.00
37824;BME280;23667;43.246;26.576;2022-09-09T22:54:22;99337.66;;;19.33;100.00
37824;BME280;23667;43.246;26.576;2022-09-09T22:56:49;99334.31;;;19.31;100.00
37824;BME280;23667;43.246;26.576;2022-09-09T22:59:15;99339.75;;;19.16;100.00
37824;BME280;23667;43.246;26.576;2022-09-09T23:01:41;99343.16;;;19.05;100.00
37824;BME280;23667;43.246;26.576;2022-09-09T23:04:07;99344.28;;;19.14;100.00
37824;BME280;23667;43.246;26.576;2022-09-09T23:06:32;99342.59;;;19.00;100.00
37824;BME280;23667;43.246;26.576;2022-09-09T23:09:01;99347.16;;;19.10;100.00
37824;BME280;23667;43.246;26.576;2022-09-09T23:11:30;99343.66;;;19.10;100.00
37824;BME280;23667;43.246;26.576;2022-09-09T23:13:58;99342.28;;;19.04;100.00
37824;BME280;23667;43.246;26.576;2022-09-09T23:16:31;99343.34;;;19.02;100.00
37824;BME280;23667;43.246;26.576;2022-09-09T23:19:03;99343.34;;;19.02;100.00
37824;BME280;23667;43.246;26.576;2022-09-09T23:21:29;99336.16;;;19.04;100.00
37824;BME280;23667;43.246;26.576;2022-09-09T23:23:57;99344.63;;;19.09;100.00
37824;BME280;23667;43.246;26.576;2022-09-09T23:26:24;99332.75;;;18.89;100.00
37824;BME280;23667;43.246;26.576;2022-09-09T23:28:51;99344.91;;;18.92;100.00
37824;BME280;23667;43.246;26.576;2022-09-09T23:31:21;99350.00;;;18.95;100.00
37824;BME280;23667;43.246;26.576;2022-09-09T23:33:47;99353.44;;;18.82;100.00
37824;BME280;23667;43.246;26.576;2022-09-09T23:36:15;99349.22;;;18.80;100.00
37824;BME280;23667;43.246;26.576;2022-09-09T23:38:42;99348.38;;;18.79;100.00
37824;BME280;23667;43.246;26.576;2022-09-09T23:41:10;99344.50;;;18.71;100.00
37824;BME280;23667;43.246;26.576;2022-09-09T23:43:37;99352.44;;;18.71;100.00
37824;BME280;23667;43.246;26.576;2022-09-09T23:46:06;99353.00;;;18.76;100.00
37824;BME280;23667;43.246;26.576;2022-09-09T23:48:33;99363.06;;;18.69;100.00
37824;BME280;23667;43.246;26.576;2022-09-09T23:51:02;99361.41;;;18.68;100.00
37824;BME280;23667;43.246;26.576;2022-09-09T23:53:27;99362.28;;;18.54;100.00
37824;BME280;23667;43.246;26.576;2022-09-09T23:55:53;99374.66;;;18.54;100.00
37824;BME280;23667;43.246;26.576;2022-09-09T23:58:18;99369.47;;;18.52;100.00
